sensor_id;sensor_type;location;lat;lon;timestamp;temperature;humidity
10437;DHT22;5265;50.006;9.202;2022-12-07T00:01:43;2.30;1.00
10437;DHT22;5265;50.006;9.202;2022-12-07T00:04:11;2.30;1.00
10437;DHT22;5265;50.006;9.202;2022-12-07T00:06:40;2.30;1.00
10437;DHT22;5265;50.006;9.202;2022-12-07T00:09:08;2.20;1.00
10437;DHT22;5265;50.006;9.202;2022-12-07T00:11:36;2.30;1.00
10437;DHT22;5265;50.006;9.202;2022-12-07T00:14:06;2.30;1.00
10437;DHT22;5265;50.006;9.202;2022-12-07T00:16:34;2.30;1.00
10437;DHT22;5265;50.006;9.202;2022-12-07T00:19:01;2.40;1.00
10437;DHT22;5265;50.006;9.202;2022-12-07T00:21:29;2.40;1.00
10437;DHT22;5265;50.006;9.202;2022-12-07T00:23:57;2.40;1.00
10437;DHT22;5265;50.006;9.202;2022-12-07T00:26:24;2.40;1.00
10437;DHT22;5265;50.006;9.202;2022-12-07T00:28:52;2.40;1.00
10437;DHT22;5265;50.006;9.202;2022-12-07T00:31:22;2.30;1.00
10437;DHT22;5265;50.006;9.202;2022-12-07T00:33:50;2.40;1.00
10437;DHT22;5265;50.006;9.202;2022-12-07T00:36:18;2.30;1.00
10437;DHT22;5265;50.006;9.202;2022-12-07T00:38:46;2.20;1.00
10437;DHT22;5265;50.006;9.202;2022-12-07T00:41:14;2.30;1.00
10437;DHT22;5265;50.006;9.202;2022-12-07T00:43:42;2.30;1.00
10437;DHT22;5265;50.006;9.202;2022-12-07T00:46:10;2.40;1.00
10437;DHT22;5265;50.006;9.202;2022-12-07T00:48:38;2.30;1.00
10437;DHT22;5265;50.006;9.202;2022-12-07T00:51:06;2.40;1.00
10437;DHT22;5265;50.006;9.202;2022-12-07T00:53:34;2.30;1.00
10437;DHT22;5265;50.006;9.202;2022-12-07T00:56:04;2.20;1.00
10437;DHT22;5265;50.006;9.202;2022-12-07T00:58:31;2.20;1.00
10437;DHT22;5265;50.006;9.202;2022-12-07T01:00:59;2.10;1.00
10437;DHT22;5265;50.006;9.202;2022-12-07T01:03:26;2.20;70.70
10437;DHT22;5265;50.006;9.202;2022-12-07T01:05:55;2.20;99.90
10437;DHT22;5265;50.006;9.202;2022-12-07T01:08:23;2.10;99.90
10437;DHT22;5265;50.006;9.202;2022-12-07T01:10:57;2.20;99.90
10437;DHT22;5265;50.006;9.202;2022-12-07T01:13:24;2.10;1.00
10437;DHT22;5265;50.006;9.202;2022-12-07T01:15:51;2.10;1.00
10437;DHT22;5265;50.006;9.202;2022-12-07T01:18:18;2.20;1.00
10437;DHT22;5265;50.006;9.202;2022-12-07T01:20:45;2.20;1.00
10437;DHT22;5265;50.006;9.202;2022-12-07T01:23:24;2.30;1.00
10437;DHT22;5265;50.006;9.202;2022-12-07T01:25:53;2.30;1.00
10437;DHT22;5265;50.006;9.202;2022-12-07T01:28:21;2.20;1.00
10437;DHT22;5265;50.006;9.202;2022-12-07T01:30:54;2.30;1.00
10437;DHT22;5265;50.006;9.202;2022-12-07T01:33:21;2.20;1.00
10437;DHT22;5265;50.006;9.202;2022-12-07T01:35:48;2.20;35.10
10437;DHT22;5265;50.006;9.202;2022-12-07T01:38:15;2.30;99.90
10437;DHT22;5265;50.006;9.202;2022-12-07T01:40:44;2.20;99.90
10437;DHT22;5265;50.006;9.202;2022-12-07T01:43:14;2.20;99.90
10437;DHT22;5265;50.006;9.202;2022-12-07T01:45:43;2.50;99.90
10437;DHT22;5265;50.006;9.202;2022-12-07T01:48:10;2.60;99.90
10437;DHT22;5265;50.006;9.202;2022-12-07T01:50:39;2.50;99.90
10437;DHT22;5265;50.006;9.202;2022-12-07T01:53:07;2.70;1.00
10437;DHT22;5265;50.006;9.202;2022-12-07T01:55:35;2.70;1.00
10437;DHT22;5265;50.006;9.202;2022-12-07T01:58:05;2.50;99.90
10437;DHT22;5265;50.006;9.202;2022-12-07T02:00:32;2.40;99.90
10437;DHT22;5265;50.006;9.202;2022-12-07T02:03:00;2.60;99.90
10437;DHT22;5265;50.006;9.202;2022-12-07T02:05:28;2.40;99.90
10437;DHT22;5265;50.006;9.202;2022-12-07T02:07:55;2.40;1.00
10437;DHT22;5265;50.006;9.202;2022-12-07T02:10:24;2.40;1.00
10437;DHT22;5265;50.006;9.202;2022-12-07T02:12:52;2.50;1.00
10437;DHT22;5265;50.006;9.202;2022-12-07T02:15:21;2.50;1.00
10437;DHT22;5265;50.006;9.202;2022-12-07T02:17:50;2.50;1.00
10437;DHT22;5265;50.006;9.202;2022-12-07T02:20:23;2.40;52.80
10437;DHT22;5265;50.006;9.202;2022-12-07T02:23:00;2.50;98.40
10437;DHT22;5265;50.006;9.202;2022-12-07T02:25:33;2.40;99.90
10437;DHT22;5265;50.006;9.202;2022-12-07T02:28:12;2.50;99.90
10437;DHT22;5265;50.006;9.202;2022-12-07T02:30:46;2.70;1.00
10437;DHT22;5265;50.006;9.202;2022-12-07T02:33:15;2.70;1.00
10437;DHT22;5265;50.006;9.202;2022-12-07T02:35:44;2.60;99.90
10437;DHT22;5265;50.006;9.202;2022-12-07T02:38:14;2.60;99.90
10437;DHT22;5265;50.006;9.202;2022-12-07T02:40:43;2.60;1.00
10437;DHT22;5265;50.006;9.202;2022-12-07T02:43:16;2.80;1.00
10437;DHT22;5265;50.006;9.202;2022-12-07T02:45:43;2.80;99.90
10437;DHT22;5265;50.006;9.202;2022-12-07T02:48:13;2.80;1.00
10437;DHT22;5265;50.006;9.202;2022-12-07T02:50:43;2.70;1.00
10437;DHT22;5265;50.006;9.202;2022-12-07T02:53:30;2.60;1.00
10437;DHT22;5265;50.006;9.202;2022-12-07T02:55:58;2.70;1.00
10437;DHT22;5265;50.006;9.202;2022-12-07T02:58:28;2.80;1.00
10437;DHT22;5265;50.006;9.202;2022-12-07T03:01:00;2.80;1.00
10437;DHT22;5265;50.006;9.202;2022-12-07T03:03:33;2.80;1.00
10437;DHT22;5265;50.006;9.202;2022-12-07T03:06:05;2.80;1.00
10437;DHT22;5265;50.006;9.202;2022-12-07T03:08:37;2.80;1.00
10437;DHT22;5265;50.006;9.202;2022-12-07T03:11:06;2.80;1.00
10437;DHT22;5265;50.006;9.202;2022-12-07T03:13:34;2.90;1.00
10437;DHT22;5265;50.006;9.202;2022-12-07T03:16:06;2.90;1.00
10437;DHT22;5265;50.006;9.202;2022-12-07T03:18:37;2.80;1.00
10437;DHT22;5265;50.006;9.202;2022-12-07T03:21:08;2.90;1.00
10437;DHT22;5265;50.006;9.202;2022-12-07T03:23:37;2.90;1.00
10437;DHT22;5265;50.006;9.202;2022-12-07T03:26:05;2.90;1.00
10437;DHT22;5265;50.006;9.202;2022-12-07T03:28:35;3.00;1.00
10437;DHT22;5265;50.006;9.202;2022-12-07T03:31:05;3.10;1.00
10437;DHT22;5265;50.006;9.202;2022-12-07T03:33:38;2.90;99.90
10437;DHT22;5265;50.006;9.202;2022-12-07T03:36:07;2.90;99.90
10437;DHT22;5265;50.006;9.202;2022-12-07T03:38:36;3.00;1.00
10437;DHT22;5265;50.006;9.202;2022-12-07T03:41:05;3.00;1.00
10437;DHT22;5265;50.006;9.202;2022-12-07T03:43:33;3.10;1.00
10437;DHT22;5265;50.006;9.202;2022-12-07T03:46:02;3.00;1.00
10437;DHT22;5265;50.006;9.202;2022-12-07T03:48:34;2.90;1.00
10437;DHT22;5265;50.006;9.202;2022-12-07T03:51:06;3.00;1.00
10437;DHT22;5265;50.006;9.202;2022-12-07T03:53:34;2.90;1.00
10437;DHT22;5265;50.006;9.202;2022-12-07T03:56:02;2.90;1.00
10437;DHT22;5265;50.006;9.202;2022-12-07T03:58:29;2.90;1.00
10437;DHT22;5265;50.006;9.202;2022-12-07T04:00:56;2.90;99.90
10437;DHT22;5265;50.006;9.202;2022-12-07T04:03:24;3.00;95.30
10437;DHT22;5265;50.006;9.202;2022-12-07T04:05:51;2.90;99.90
10437;DHT22;5265;50.006;9.202;2022-12-07T04:08:19;2.80;99.90
10437;DHT22;5265;50.006;9.202;2022-12-07T04:10:46;3.00;99.90
10437;DHT22;5265;50.006;9.202;2022-12-07T04:13:13;3.00;99.90
10437;DHT22;5265;50.006;9.202;2022-12-07T04:15:40;3.00;99.90
10437;DHT22;5265;50.006;9.202;2022-12-07T04:18:07;3.00;99.90
10437;DHT22;5265;50.006;9.202;2022-12-07T04:20:34;2.80;99.90
10437;DHT22;5265;50.006;9.202;2022-12-07T04:23:01;2.90;99.90
10437;DHT22;5265;50.006;9.202;2022-12-07T04:25:30;2.90;99.90
10437;DHT22;5265;50.006;9.202;2022-12-07T04:27:56;2.70;99.90
10437;DHT22;5265;50.006;9.202;2022-12-07T04:30:23;2.80;99.90
10437;DHT22;5265;50.006;9.202;2022-12-07T04:32:50;2.80;99.90
10437;DHT22;5265;50.006;9.202;2022-12-07T04:35:17;2.80;99.90
10437;DHT22;5265;50.006;9.202;2022-12-07T04:37:44;2.80;99.90
10437;DHT22;5265;50.006;9.202;2022-12-07T04:40:11;3.00;99.90
10437;DHT22;5265;50.006;9.202;2022-12-07T04:42:41;2.90;99.90
10437;DHT22;5265;50.006;9.202;2022-12-07T04:45:08;2.70;99.90
10437;DHT22;5265;50.006;9.202;2022-12-07T04:47:35;2.90;99.90
10437;DHT22;5265;50.006;9.202;2022-12-07T04:50:02;2.90;99.90
10437;DHT22;5265;50.006;9.202;2022-12-07T04:52:29;2.80;99.90
10437;DHT22;5265;50.006;9.202;2022-12-07T04:54:56;2.90;99.90
10437;DHT22;5265;50.006;9.202;2022-12-07T04:57:23;2.90;99.90
10437;DHT22;5265;50.006;9.202;2022-12-07T04:59:51;2.80;99.90
10437;DHT22;5265;50.006;9.202;2022-12-07T05:02:18;2.90;99.90
10437;DHT22;5265;50.006;9.202;2022-12-07T05:04:45;3.00;99.90
10437;DHT22;5265;50.006;9.202;2022-12-07T05:07:12;3.00;95.80
10437;DHT22;5265;50.006;9.202;2022-12-07T05:09:39;3.00;68.30
10437;DHT22;5265;50.006;9.202;2022-12-07T05:12:07;3.00;62.90
10437;DHT22;5265;50.006;9.202;2022-12-07T05:14:33;3.20;1.00
10437;DHT22;5265;50.006;9.202;2022-12-07T05:17:02;3.00;1.00
10437;DHT22;5265;50.006;9.202;2022-12-07T05:19:29;2.90;1.00
10437;DHT22;5265;50.006;9.202;2022-12-07T05:21:57;2.80;1.00
10437;DHT22;5265;50.006;9.202;2022-12-07T05:24:24;3.10;1.00
10437;DHT22;5265;50.006;9.202;2022-12-07T05:26:51;3.60;1.00
10437;DHT22;5265;50.006;9.202;2022-12-07T05:29:18;3.00;1.00
10437;DHT22;5265;50.006;9.202;2022-12-07T05:31:45;3.90;1.00
10437;DHT22;5265;50.006;9.202;2022-12-07T05:34:14;3.10;1.00
10437;DHT22;5265;50.006;9.202;2022-12-07T05:36:41;3.30;1.00
10437;DHT22;5265;50.006;9.202;2022-12-07T05:39:08;3.20;1.00
10437;DHT22;5265;50.006;9.202;2022-12-07T05:41:35;3.10;1.00
10437;DHT22;5265;50.006;9.202;2022-12-07T05:44:19;3.00;1.00
10437;DHT22;5265;50.006;9.202;2022-12-07T05:46:47;2.90;1.00
10437;DHT22;5265;50.006;9.202;2022-12-07T05:49:15;3.10;99.90
10437;DHT22;5265;50.006;9.202;2022-12-07T05:51:42;3.10;99.90
10437;DHT22;5265;50.006;9.202;2022-12-07T05:54:09;3.00;99.90
10437;DHT22;5265;50.006;9.202;2022-12-07T05:56:36;3.10;99.90
10437;DHT22;5265;50.006;9.202;2022-12-07T05:59:03;3.20;99.90
10437;DHT22;5265;50.006;9.202;2022-12-07T06:01:48;3.20;99.90
10437;DHT22;5265;50.006;9.202;2022-12-07T06:04:17;2.90;99.90
10437;DHT22;5265;50.006;9.202;2022-12-07T06:06:44;3.10;99.90
10437;DHT22;5265;50.006;9.202;2022-12-07T06:09:11;2.90;99.90
10437;DHT22;5265;50.006;9.202;2022-12-07T06:11:38;3.10;49.40
10437;DHT22;5265;50.006;9.202;2022-12-07T06:14:23;3.10;1.00
10437;DHT22;5265;50.006;9.202;2022-12-07T06:16:51;3.10;1.00
10437;DHT22;5265;50.006;9.202;2022-12-07T06:19:19;3.30;3.10
10437;DHT22;5265;50.006;9.202;2022-12-07T06:21:46;3.00;1.00
10437;DHT22;5265;50.006;9.202;2022-12-07T06:24:14;3.00;1.00
10437;DHT22;5265;50.006;9.202;2022-12-07T06:26:42;3.10;1.00
10437;DHT22;5265;50.006;9.202;2022-12-07T06:29:09;3.00;32.80
10437;DHT22;5265;50.006;9.202;2022-12-07T06:31:36;3.10;97.60
10437;DHT22;5265;50.006;9.202;2022-12-07T06:34:04;3.10;1.00
10437;DHT22;5265;50.006;9.202;2022-12-07T06:36:33;3.10;1.00
10437;DHT22;5265;50.006;9.202;2022-12-07T06:39:00;3.00;1.00
10437;DHT22;5265;50.006;9.202;2022-12-07T06:41:28;3.00;1.00
10437;DHT22;5265;50.006;9.202;2022-12-07T06:43:55;3.00;1.00
10437;DHT22;5265;50.006;9.202;2022-12-07T06:46:22;3.00;1.00
10437;DHT22;5265;50.006;9.202;2022-12-07T06:48:50;3.00;1.00
10437;DHT22;5265;50.006;9.202;2022-12-07T06:51:17;2.90;1.00
10437;DHT22;5265;50.006;9.202;2022-12-07T06:53:45;3.90;1.00
10437;DHT22;5265;50.006;9.202;2022-12-07T06:56:12;3.50;1.00
10437;DHT22;5265;50.006;9.202;2022-12-07T06:58:40;3.10;1.00
10437;DHT22;5265;50.006;9.202;2022-12-07T07:01:08;3.10;99.90
10437;DHT22;5265;50.006;9.202;2022-12-07T07:03:36;3.00;99.90
10437;DHT22;5265;50.006;9.202;2022-12-07T07:06:03;3.20;99.90
10437;DHT22;5265;50.006;9.202;2022-12-07T07:08:30;3.10;99.90
10437;DHT22;5265;50.006;9.202;2022-12-07T07:10:59;3.20;99.90
10437;DHT22;5265;50.006;9.202;2022-12-07T07:13:26;3.20;99.90
10437;DHT22;5265;50.006;9.202;2022-12-07T07:15:53;3.10;99.90
10437;DHT22;5265;50.006;9.202;2022-12-07T07:18:20;3.30;99.90
10437;DHT22;5265;50.006;9.202;2022-12-07T07:20:48;3.20;99.90
10437;DHT22;5265;50.006;9.202;2022-12-07T07:23:16;3.20;99.90
10437;DHT22;5265;50.006;9.202;2022-12-07T07:25:43;3.20;99.90
10437;DHT22;5265;50.006;9.202;2022-12-07T07:28:12;4.00;99.90
10437;DHT22;5265;50.006;9.202;2022-12-07T07:30:39;3.30;99.90
10437;DHT22;5265;50.006;9.202;2022-12-07T07:33:06;3.50;99.90
10437;DHT22;5265;50.006;9.202;2022-12-07T07:35:33;3.80;99.90
10437;DHT22;5265;50.006;9.202;2022-12-07T07:38:01;3.30;99.90
10437;DHT22;5265;50.006;9.202;2022-12-07T07:40:29;3.30;99.90
10437;DHT22;5265;50.006;9.202;2022-12-07T07:42:56;3.40;99.90
10437;DHT22;5265;50.006;9.202;2022-12-07T07:45:24;3.30;99.90
10437;DHT22;5265;50.006;9.202;2022-12-07T07:47:51;3.20;99.90
10437;DHT22;5265;50.006;9.202;2022-12-07T07:50:19;3.10;99.90
10437;DHT22;5265;50.006;9.202;2022-12-07T07:52:46;3.50;1.00
10437;DHT22;5265;50.006;9.202;2022-12-07T07:55:13;3.30;1.00
10437;DHT22;5265;50.006;9.202;2022-12-07T07:57:41;3.20;1.00
10437;DHT22;5265;50.006;9.202;2022-12-07T08:00:09;3.60;1.00
10437;DHT22;5265;50.006;9.202;2022-12-07T08:02:40;3.30;1.00
10437;DHT22;5265;50.006;9.202;2022-12-07T08:05:08;3.30;1.00
10437;DHT22;5265;50.006;9.202;2022-12-07T08:07:35;3.70;1.00
10437;DHT22;5265;50.006;9.202;2022-12-07T08:10:02;3.20;1.00
10437;DHT22;5265;50.006;9.202;2022-12-07T08:12:30;3.30;1.00
10437;DHT22;5265;50.006;9.202;2022-12-07T08:14:57;3.20;1.00
10437;DHT22;5265;50.006;9.202;2022-12-07T08:17:24;4.00;1.00
10437;DHT22;5265;50.006;9.202;2022-12-07T08:19:52;3.40;99.90
10437;DHT22;5265;50.006;9.202;2022-12-07T08:22:19;3.50;1.00
10437;DHT22;5265;50.006;9.202;2022-12-07T08:24:46;3.40;1.00
10437;DHT22;5265;50.006;9.202;2022-12-07T08:27:13;3.50;99.90
10437;DHT22;5265;50.006;9.202;2022-12-07T08:29:41;3.50;99.90
10437;DHT22;5265;50.006;9.202;2022-12-07T08:32:08;3.40;99.90
10437;DHT22;5265;50.006;9.202;2022-12-07T08:34:35;3.70;99.90
10437;DHT22;5265;50.006;9.202;2022-12-07T08:37:04;4.10;99.90
10437;DHT22;5265;50.006;9.202;2022-12-07T08:39:31;3.70;99.90
10437;DHT22;5265;50.006;9.202;2022-12-07T08:41:58;3.50;99.90
10437;DHT22;5265;50.006;9.202;2022-12-07T08:44:25;3.50;99.90
10437;DHT22;5265;50.006;9.202;2022-12-07T08:46:53;3.60;99.90
10437;DHT22;5265;50.006;9.202;2022-12-07T08:49:22;3.50;99.90
10437;DHT22;5265;50.006;9.202;2022-12-07T08:51:51;3.70;99.90
10437;DHT22;5265;50.006;9.202;2022-12-07T08:54:20;3.70;99.90
10437;DHT22;5265;50.006;9.202;2022-12-07T08:56:48;4.50;99.90
10437;DHT22;5265;50.006;9.202;2022-12-07T08:59:16;3.60;99.90
10437;DHT22;5265;50.006;9.202;2022-12-07T09:01:44;3.90;99.90
10437;DHT22;5265;50.006;9.202;2022-12-07T09:04:11;3.70;99.90
10437;DHT22;5265;50.006;9.202;2022-12-07T09:06:38;4.50;92.60
10437;DHT22;5265;50.006;9.202;2022-12-07T09:09:05;3.80;58.00
10437;DHT22;5265;50.006;9.202;2022-12-07T09:11:34;4.00;41.00
10437;DHT22;5265;50.006;9.202;2022-12-07T09:14:01;3.80;28.40
10437;DHT22;5265;50.006;9.202;2022-12-07T09:16:28;4.90;26.40
10437;DHT22;5265;50.006;9.202;2022-12-07T09:18:55;3.90;1.00
10437;DHT22;5265;50.006;9.202;2022-12-07T09:21:22;4.40;4.40
10437;DHT22;5265;50.006;9.202;2022-12-07T09:23:49;4.50;1.00
10437;DHT22;5265;50.006;9.202;2022-12-07T09:26:16;4.70;1.00
10437;DHT22;5265;50.006;9.202;2022-12-07T09:28:45;4.40;1.00
10437;DHT22;5265;50.006;9.202;2022-12-07T09:31:12;3.90;1.00
10437;DHT22;5265;50.006;9.202;2022-12-07T09:33:39;3.90;1.00
10437;DHT22;5265;50.006;9.202;2022-12-07T09:36:07;4.00;1.00
10437;DHT22;5265;50.006;9.202;2022-12-07T09:38:35;4.00;1.00
10437;DHT22;5265;50.006;9.202;2022-12-07T09:41:04;4.80;1.00
10437;DHT22;5265;50.006;9.202;2022-12-07T09:43:32;3.90;1.00
10437;DHT22;5265;50.006;9.202;2022-12-07T09:46:01;4.00;1.00
10437;DHT22;5265;50.006;9.202;2022-12-07T09:48:29;3.90;1.00
10437;DHT22;5265;50.006;9.202;2022-12-07T09:50:57;4.10;1.00
10437;DHT22;5265;50.006;9.202;2022-12-07T09:53:25;4.10;1.00
10437;DHT22;5265;50.006;9.202;2022-12-07T09:55:53;4.80;1.00
10437;DHT22;5265;50.006;9.202;2022-12-07T09:58:21;4.00;1.00
10437;DHT22;5265;50.006;9.202;2022-12-07T10:00:49;4.80;1.00
10437;DHT22;5265;50.006;9.202;2022-12-07T10:03:18;5.20;1.00
10437;DHT22;5265;50.006;9.202;2022-12-07T10:05:47;5.20;1.00
10437;DHT22;5265;50.006;9.202;2022-12-07T10:08:15;4.90;1.00
10437;DHT22;5265;50.006;9.202;2022-12-07T10:10:42;4.30;1.00
10437;DHT22;5265;50.006;9.202;2022-12-07T10:13:11;4.50;1.00
10437;DHT22;5265;50.006;9.202;2022-12-07T10:15:42;4.40;1.00
10437;DHT22;5265;50.006;9.202;2022-12-07T10:18:28;5.40;1.00
10437;DHT22;5265;50.006;9.202;2022-12-07T10:21:12;4.60;1.00
10437;DHT22;5265;50.006;9.202;2022-12-07T10:23:40;4.60;1.00
10437;DHT22;5265;50.006;9.202;2022-12-07T10:26:19;5.30;1.00
10437;DHT22;5265;50.006;9.202;2022-12-07T10:28:46;4.50;1.00
10437;DHT22;5265;50.006;9.202;2022-12-07T10:31:15;5.50;1.00
10437;DHT22;5265;50.006;9.202;2022-12-07T10:33:50;5.60;1.00
10437;DHT22;5265;50.006;9.202;2022-12-07T10:36:19;5.40;1.00
10437;DHT22;5265;50.006;9.202;2022-12-07T10:38:47;4.60;1.00
10437;DHT22;5265;50.006;9.202;2022-12-07T10:41:14;5.50;1.00
10437;DHT22;5265;50.006;9.202;2022-12-07T10:43:46;5.40;1.00
10437;DHT22;5265;50.006;9.202;2022-12-07T10:46:20;4.60;1.00
10437;DHT22;5265;50.006;9.202;2022-12-07T10:48:52;5.20;1.00
10437;DHT22;5265;50.006;9.202;2022-12-07T10:51:23;5.70;1.00
10437;DHT22;5265;50.006;9.202;2022-12-07T10:53:56;5.20;99.90
10437;DHT22;5265;50.006;9.202;2022-12-07T10:56:29;4.80;99.90
10437;DHT22;5265;50.006;9.202;2022-12-07T10:59:02;5.50;99.90
10437;DHT22;5265;50.006;9.202;2022-12-07T11:01:31;5.20;99.90
10437;DHT22;5265;50.006;9.202;2022-12-07T11:04:10;5.30;99.90
10437;DHT22;5265;50.006;9.202;2022-12-07T11:06:41;4.90;99.90
10437;DHT22;5265;50.006;9.202;2022-12-07T11:09:19;5.30;99.90
10437;DHT22;5265;50.006;9.202;2022-12-07T11:11:54;5.50;99.90
10437;DHT22;5265;50.006;9.202;2022-12-07T11:14:28;5.00;99.90
10437;DHT22;5265;50.006;9.202;2022-12-07T11:16:59;5.00;99.90
10437;DHT22;5265;50.006;9.202;2022-12-07T11:19:34;5.20;99.90
10437;DHT22;5265;50.006;9.202;2022-12-07T11:22:09;4.90;99.90
10437;DHT22;5265;50.006;9.202;2022-12-07T11:24:40;5.00;1.00
10437;DHT22;5265;50.006;9.202;2022-12-07T11:27:10;5.10;99.90
10437;DHT22;5265;50.006;9.202;2022-12-07T11:29:44;5.40;99.90
10437;DHT22;5265;50.006;9.202;2022-12-07T11:32:14;5.80;99.90
10437;DHT22;5265;50.006;9.202;2022-12-07T11:34:49;5.70;99.90
10437;DHT22;5265;50.006;9.202;2022-12-07T11:37:19;5.50;99.90
10437;DHT22;5265;50.006;9.202;2022-12-07T11:39:48;5.70;99.90
10437;DHT22;5265;50.006;9.202;2022-12-07T11:42:20;4.90;99.90
10437;DHT22;5265;50.006;9.202;2022-12-07T11:44:50;4.60;99.90
10437;DHT22;5265;50.006;9.202;2022-12-07T11:47:20;4.60;99.90
10437;DHT22;5265;50.006;9.202;2022-12-07T11:49:52;4.60;99.90
10437;DHT22;5265;50.006;9.202;2022-12-07T11:52:22;5.30;99.90
10437;DHT22;5265;50.006;9.202;2022-12-07T11:54:51;5.80;99.90
10437;DHT22;5265;50.006;9.202;2022-12-07T11:57:20;5.10;99.90
10437;DHT22;5265;50.006;9.202;2022-12-07T11:59:49;5.80;99.90
10437;DHT22;5265;50.006;9.202;2022-12-07T12:02:18;5.30;99.90
10437;DHT22;5265;50.006;9.202;2022-12-07T12:04:51;5.50;1.00
10437;DHT22;5265;50.006;9.202;2022-12-07T12:07:21;5.80;1.00
10437;DHT22;5265;50.006;9.202;2022-12-07T12:09:49;5.60;1.00
10437;DHT22;5265;50.006;9.202;2022-12-07T12:12:31;5.80;99.90
10437;DHT22;5265;50.006;9.202;2022-12-07T12:15:05;5.20;99.90
10437;DHT22;5265;50.006;9.202;2022-12-07T12:17:47;5.30;1.00
10437;DHT22;5265;50.006;9.202;2022-12-07T12:20:20;5.20;1.00
10437;DHT22;5265;50.006;9.202;2022-12-07T12:22:50;5.20;1.00
10437;DHT22;5265;50.006;9.202;2022-12-07T12:25:20;5.80;99.90
10437;DHT22;5265;50.006;9.202;2022-12-07T12:27:48;5.60;1.00
10437;DHT22;5265;50.006;9.202;2022-12-07T12:30:26;5.10;1.00
10437;DHT22;5265;50.006;9.202;2022-12-07T12:33:00;5.40;99.90
10437;DHT22;5265;50.006;9.202;2022-12-07T12:35:30;5.30;99.90
10437;DHT22;5265;50.006;9.202;2022-12-07T12:40:40;5.70;99.90
10437;DHT22;5265;50.006;9.202;2022-12-07T12:48:38;5.70;99.90
10437;DHT22;5265;50.006;9.202;2022-12-07T12:53:51;5.40;99.90
10437;DHT22;5265;50.006;9.202;2022-12-07T12:56:25;5.40;99.90
10437;DHT22;5265;50.006;9.202;2022-12-07T13:01:39;5.00;99.90
10437;DHT22;5265;50.006;9.202;2022-12-07T13:04:27;5.30;99.90
10437;DHT22;5265;50.006;9.202;2022-12-07T13:06:55;5.40;99.90
10437;DHT22;5265;50.006;9.202;2022-12-07T13:09:24;5.50;99.90
10437;DHT22;5265;50.006;9.202;2022-12-07T13:11:56;5.60;99.90
10437;DHT22;5265;50.006;9.202;2022-12-07T13:14:51;5.30;99.90
10437;DHT22;5265;50.006;9.202;2022-12-07T13:20:05;5.30;99.90
10437;DHT22;5265;50.006;9.202;2022-12-07T13:22:43;5.40;99.90
10437;DHT22;5265;50.006;9.202;2022-12-07T13:25:12;5.30;99.90
10437;DHT22;5265;50.006;9.202;2022-12-07T13:27:47;5.30;99.90
10437;DHT22;5265;50.006;9.202;2022-12-07T13:30:16;5.30;99.90
10437;DHT22;5265;50.006;9.202;2022-12-07T13:32:43;5.40;99.90
10437;DHT22;5265;50.006;9.202;2022-12-07T13:35:27;5.30;99.90
10437;DHT22;5265;50.006;9.202;2022-12-07T13:37:54;5.30;99.90
10437;DHT22;5265;50.006;9.202;2022-12-07T13:40:23;5.90;99.90
10437;DHT22;5265;50.006;9.202;2022-12-07T13:42:56;5.40;99.90
10437;DHT22;5265;50.006;9.202;2022-12-07T13:45:25;5.90;99.90
10437;DHT22;5265;50.006;9.202;2022-12-07T13:48:14;5.40;99.90
10437;DHT22;5265;50.006;9.202;2022-12-07T13:50:42;6.10;99.90
10437;DHT22;5265;50.006;9.202;2022-12-07T13:53:11;5.50;99.90
10437;DHT22;5265;50.006;9.202;2022-12-07T13:55:45;5.10;99.90
10437;DHT22;5265;50.006;9.202;2022-12-07T13:58:13;5.30;99.90
10437;DHT22;5265;50.006;9.202;2022-12-07T14:00:40;5.30;99.90
10437;DHT22;5265;50.006;9.202;2022-12-07T14:03:22;5.60;99.90
10437;DHT22;5265;50.006;9.202;2022-12-07T14:06:02;5.90;99.90
10437;DHT22;5265;50.006;9.202;2022-12-07T14:08:30;5.30;99.90
10437;DHT22;5265;50.006;9.202;2022-12-07T14:10:58;5.50;99.90
10437;DHT22;5265;50.006;9.202;2022-12-07T14:13:27;5.10;99.90
10437;DHT22;5265;50.006;9.202;2022-12-07T14:15:55;5.20;99.90
10437;DHT22;5265;50.006;9.202;2022-12-07T14:18:25;5.20;99.90
10437;DHT22;5265;50.006;9.202;2022-12-07T14:21:02;5.60;99.90
10437;DHT22;5265;50.006;9.202;2022-12-07T14:23:29;4.80;99.90
10437;DHT22;5265;50.006;9.202;2022-12-07T14:26:05;4.10;99.90
10437;DHT22;5265;50.006;9.202;2022-12-07T14:28:34;3.90;99.90
10437;DHT22;5265;50.006;9.202;2022-12-07T14:31:02;3.80;99.90
10437;DHT22;5265;50.006;9.202;2022-12-07T14:33:29;4.00;1.00
10437;DHT22;5265;50.006;9.202;2022-12-07T14:35:57;3.80;1.00
10437;DHT22;5265;50.006;9.202;2022-12-07T14:38:25;3.60;1.00
10437;DHT22;5265;50.006;9.202;2022-12-07T14:40:52;3.70;1.00
10437;DHT22;5265;50.006;9.202;2022-12-07T14:43:22;3.80;1.00
10437;DHT22;5265;50.006;9.202;2022-12-07T14:45:49;3.70;1.00
10437;DHT22;5265;50.006;9.202;2022-12-07T14:48:16;3.50;1.00
10437;DHT22;5265;50.006;9.202;2022-12-07T14:50:44;3.70;1.00
10437;DHT22;5265;50.006;9.202;2022-12-07T14:53:15;3.80;1.00
10437;DHT22;5265;50.006;9.202;2022-12-07T14:55:43;3.90;1.00
10437;DHT22;5265;50.006;9.202;2022-12-07T14:58:11;3.80;1.00
10437;DHT22;5265;50.006;9.202;2022-12-07T15:00:41;3.80;1.00
10437;DHT22;5265;50.006;9.202;2022-12-07T15:03:08;3.50;1.00
10437;DHT22;5265;50.006;9.202;2022-12-07T15:05:35;3.80;1.00
10437;DHT22;5265;50.006;9.202;2022-12-07T15:08:03;3.80;1.00
10437;DHT22;5265;50.006;9.202;2022-12-07T15:10:31;3.70;1.00
10437;DHT22;5265;50.006;9.202;2022-12-07T15:12:59;3.70;1.00
10437;DHT22;5265;50.006;9.202;2022-12-07T15:15:49;3.70;1.00
10437;DHT22;5265;50.006;9.202;2022-12-07T15:18:16;3.70;1.00
10437;DHT22;5265;50.006;9.202;2022-12-07T15:20:43;3.60;38.40
10437;DHT22;5265;50.006;9.202;2022-12-07T15:23:10;3.70;59.20
10437;DHT22;5265;50.006;9.202;2022-12-07T15:25:39;3.90;99.40
10437;DHT22;5265;50.006;9.202;2022-12-07T15:28:07;3.70;99.90
10437;DHT22;5265;50.006;9.202;2022-12-07T15:30:36;3.70;99.90
10437;DHT22;5265;50.006;9.202;2022-12-07T15:33:04;3.70;99.90
10437;DHT22;5265;50.006;9.202;2022-12-07T15:35:31;3.60;99.90
10437;DHT22;5265;50.006;9.202;2022-12-07T15:37:58;3.70;99.90
10437;DHT22;5265;50.006;9.202;2022-12-07T15:40:26;3.70;99.90
10437;DHT22;5265;50.006;9.202;2022-12-07T15:42:53;3.70;99.90
10437;DHT22;5265;50.006;9.202;2022-12-07T15:45:20;3.60;99.90
10437;DHT22;5265;50.006;9.202;2022-12-07T15:47:46;3.60;99.90
10437;DHT22;5265;50.006;9.202;2022-12-07T15:50:15;3.90;99.90
10437;DHT22;5265;50.006;9.202;2022-12-07T15:52:42;3.60;99.90
10437;DHT22;5265;50.006;9.202;2022-12-07T15:55:09;3.60;99.90
10437;DHT22;5265;50.006;9.202;2022-12-07T15:57:37;3.70;99.90
10437;DHT22;5265;50.006;9.202;2022-12-07T16:00:06;3.70;99.90
10437;DHT22;5265;50.006;9.202;2022-12-07T16:02:34;3.70;99.90
10437;DHT22;5265;50.006;9.202;2022-12-07T16:05:01;3.80;99.90
10437;DHT22;5265;50.006;9.202;2022-12-07T16:07:29;3.70;99.90
10437;DHT22;5265;50.006;9.202;2022-12-07T16:09:56;3.60;61.60
10437;DHT22;5265;50.006;9.202;2022-12-07T16:12:23;3.40;1.00
10437;DHT22;5265;50.006;9.202;2022-12-07T16:14:51;3.80;31.30
10437;DHT22;5265;50.006;9.202;2022-12-07T16:17:19;4.00;99.90
10437;DHT22;5265;50.006;9.202;2022-12-07T16:19:46;3.50;1.00
10437;DHT22;5265;50.006;9.202;2022-12-07T16:22:13;3.90;1.00
10437;DHT22;5265;50.006;9.202;2022-12-07T16:24:41;3.60;1.00
10437;DHT22;5265;50.006;9.202;2022-12-07T16:27:09;3.50;1.00
10437;DHT22;5265;50.006;9.202;2022-12-07T16:29:36;3.50;1.00
10437;DHT22;5265;50.006;9.202;2022-12-07T16:32:03;3.40;1.00
10437;DHT22;5265;50.006;9.202;2022-12-07T16:34:30;3.60;1.00
10437;DHT22;5265;50.006;9.202;2022-12-07T16:36:58;3.40;16.10
10437;DHT22;5265;50.006;9.202;2022-12-07T16:39:25;4.10;91.80